Time;durP1;ratioP1;P1;durP2;ratioP2;P2;SDS_P1;SDS_P2;PMS_P1;PMS_P2;Temp;Humidity;BMP_temperature;BMP_pressure;BME280_temperature;BME280_humidity;BME280_pressure;Samples;Min_cycle;Max_cycle;Signal;HPM_P1;HPM_P2
2024/01/07 00:01:09;;;;;;;0.6;0.6;;;;;;;2.83;97.09082;928.3988;;;;
2024/01/07 00:03:33;;;;;;;0.6;0.5;;;;;;;2.85;97.09863;928.4113;;;;
2024/01/07 00:05:58;;;;;;;0.6;0.6;;;;;;;2.86;96.94336;928.3406;;;;
2024/01/07 00:08:23;;;;;;;0.5;0.5;;;;;;;2.83;97.31934;928.3055;;;;
2024/01/07 00:10:49;;;;;;;0.6;0.6;;;;;;;2.86;97.29102;928.3289;;;;
2024/01/07 00:13:14;;;;;;;0.6;0.6;;;;;;;2.92;96.77441;928.3663;;;;
2024/01/07 00:15:39;;;;;;;0.8;0.8;;;;;;;2.91;96.52832;928.3857;;;;
2024/01/07 00:18:04;;;;;;;0.8;0.8;;;;;;;2.85;97.01855;928.3577;;;;
2024/01/07 00:20:29;;;;;;;0.8;0.8;;;;;;;2.86;96.96582;928.3964;;;;
2024/01/07 00:22:54;;;;;;;0.7;0.7;;;;;;;2.95;96.43555;928.3803;;;;
2024/01/07 00:25:20;;;;;;;0.7;0.7;;;;;;;2.86;96.77344;928.3947;;;;
2024/01/07 00:27:45;;;;;;;0.7;0.7;;;;;;;2.75;97.39941;928.3647;;;;
2024/01/07 00:30:10;;;;;;;0.9;0.8;;;;;;;2.78;97.46387;928.3716;;;;
2024/01/07 00:32:35;;;;;;;0.8;0.8;;;;;;;2.88;97.0127;928.3606;;;;
2024/01/07 00:35:00;;;;;;;0.7;0.7;;;;;;;2.83;97.18457;928.3574;;;;
2024/01/07 00:37:26;;;;;;;0.7;0.7;;;;;;;2.86;96.96387;928.3272;;;;
2024/01/07 00:39:50;;;;;;;0.8;0.8;;;;;;;2.83;96.9043;928.3353;;;;
2024/01/07 00:42:15;;;;;;;0.8;0.8;;;;;;;2.78;96.96777;928.3306;;;;
2024/01/07 00:44:40;;;;;;;0.8;0.8;;;;;;;2.83;96.87988;928.3069;;;;
2024/01/07 00:47:50;;;;;;;0.9;0.9;;;;;;;2.84;96.99414;928.4102;;;;
2024/01/07 00:50:15;;;;;;;1;1;;;;;;;2.81;97.08887;928.4055;;;;
2024/01/07 00:52:43;;;;;;;0.8;0.8;;;;;;;2.77;97.31348;928.4217;;;;
2024/01/07 00:55:06;;;;;;;0.9;0.9;;;;;;;2.81;97.07715;928.4386;;;;
2024/01/07 00:57:31;;;;;;;0.9;0.9;;;;;;;2.82;97.03418;928.4774;;;;
2024/01/07 00:59:56;;;;;;;1;1;;;;;;;2.86;96.6748;928.4797;;;;
2024/01/07 01:02:21;;;;;;;0.8;0.8;;;;;;;2.89;96.63574;928.4986;;;;
2024/01/07 01:04:46;;;;;;;1;1;;;;;;;2.84;96.78027;928.4728;;;;
2024/01/07 01:07:12;;;;;;;0.8;0.8;;;;;;;2.74;97.39746;928.5193;;;;
2024/01/07 01:09:36;;;;;;;1;1;;;;;;;2.75;97.45508;928.488;;;;
2024/01/07 01:12:02;;;;;;;1;1;;;;;;;2.62;98.04102;928.4661;;;;
2024/01/07 01:14:27;;;;;;;1;1;;;;;;;2.68;97.96777;928.5006;;;;
2024/01/07 01:16:52;;;;;;;1;1;;;;;;;2.73;97.69727;928.5307;;;;
2024/01/07 01:19:17;;;;;;;0.8;0.8;;;;;;;2.81;97.48047;928.5289;;;;
2024/01/07 01:21:42;;;;;;;1.1;1;;;;;;;2.75;97.15234;928.5446;;;;
2024/01/07 01:24:07;;;;;;;1;1;;;;;;;2.81;97.14453;928.5786;;;;
2024/01/07 01:26:32;;;;;;;1.1;1.1;;;;;;;2.87;96.85449;928.5986;;;;
2024/01/07 01:28:58;;;;;;;1.3;1.2;;;;;;;2.75;97.5332;928.5446;;;;
2024/01/07 01:31:23;;;;;;;1.1;1.1;;;;;;;2.74;97.66602;928.524;;;;
2024/01/07 01:33:48;;;;;;;1.2;1.1;;;;;;;2.72;97.74023;928.5848;;;;
2024/01/07 01:36:13;;;;;;;1;1;;;;;;;2.8;97.4541;928.4906;;;;
2024/01/07 01:38:38;;;;;;;1.3;1.2;;;;;;;2.7;97.71191;928.5481;;;;
2024/01/07 01:41:03;;;;;;;1.5;1.2;;;;;;;2.74;97.63281;928.4855;;;;
2024/01/07 01:43:28;;;;;;;1;1;;;;;;;2.84;97.4873;928.5389;;;;
2024/01/07 01:45:53;;;;;;;1.2;1.1;;;;;;;2.85;96.94141;928.5496;;;;
2024/01/07 01:48:18;;;;;;;1;1;;;;;;;2.84;97.09473;928.5578;;;;
2024/01/07 01:50:44;;;;;;;0.9;0.9;;;;;;;2.79;96.95898;928.5181;;;;
2024/01/07 01:53:09;;;;;;;1.1;1;;;;;;;2.71;97.29004;928.5485;;;;
2024/01/07 01:55:34;;;;;;;1.1;1.1;;;;;;;2.73;97.61914;928.5275;;;;
2024/01/07 01:58:03;;;;;;;1.1;1.1;;;;;;;2.77;97.40332;928.5528;;;;
2024/01/07 02:00:24;;;;;;;0.9;0.9;;;;;;;2.69;97.7793;928.5543;;;;
2024/01/07 02:02:49;;;;;;;1.3;1.2;;;;;;;2.75;97.44629;928.562;;;;
2024/01/07 02:05:15;;;;;;;1.1;1.1;;;;;;;2.69;97.66504;928.5715;;;;
2024/01/07 02:07:39;;;;;;;1.4;1.3;;;;;;;2.68;97.82227;928.5572;;;;
2024/01/07 02:10:04;;;;;;;1.4;1.3;;;;;;;2.67;97.76367;928.5256;;;;
2024/01/07 02:12:30;;;;;;;2.1;1.4;;;;;;;2.76;97.5918;928.5675;;;;
2024/01/07 02:14:55;;;;;;;1.8;1.7;;;;;;;2.73;97.52051;928.5898;;;;
2024/01/07 02:17:20;;;;;;;1.7;1.6;;;;;;;2.74;97.47559;928.5994;;;;
2024/01/07 02:19:45;;;;;;;1.8;1.7;;;;;;;2.83;97.1709;928.564;;;;
2024/01/07 02:22:10;;;;;;;1.7;1.6;;;;;;;2.64;97.75586;928.5516;;;;
2024/01/07 02:24:35;;;;;;;1.8;1.7;;;;;;;2.69;97.90039;928.4968;;;;
2024/01/07 02:27:02;;;;;;;1.9;1.8;;;;;;;2.64;98.14746;928.5429;;;;
2024/01/07 02:29:26;;;;;;;2;1.9;;;;;;;2.71;97.59277;928.5256;;;;
2024/01/07 02:31:51;;;;;;;1.9;1.8;;;;;;;2.74;97.4082;928.5844;;;;
2024/01/07 02:34:15;;;;;;;2.4;1.9;;;;;;;2.71;97.50293;928.5564;;;;
2024/01/07 02:36:41;;;;;;;2;1.9;;;;;;;2.71;97.59277;928.5767;;;;
2024/01/07 02:39:06;;;;;;;2.2;2;;;;;;;2.74;97.57617;928.5695;;;;
2024/01/07 02:41:31;;;;;;;1.7;1.6;;;;;;;2.76;97.45703;928.5566;;;;
2024/01/07 02:43:56;;;;;;;1.6;1.5;;;;;;;2.81;97.00977;928.5754;;;;
2024/01/07 02:46:21;;;;;;;2.6;1.5;;;;;;;2.78;97.1582;928.5005;;;;
2024/01/07 02:48:46;;;;;;;1.5;1.4;;;;;;;2.72;97.35938;928.5535;;;;
2024/01/07 02:51:11;;;;;;;1.6;1.5;;;;;;;2.75;97.4668;928.5248;;;;
2024/01/07 02:53:37;;;;;;;1.6;1.5;;;;;;;2.68;97.69824;928.5258;;;;
2024/01/07 02:56:02;;;;;;;1.5;1.4;;;;;;;2.68;97.93359;928.4636;;;;
2024/01/07 02:58:27;;;;;;;1.1;1.1;;;;;;;2.68;97.74121;928.5021;;;;
2024/01/07 03:00:52;;;;;;;1.4;1.3;;;;;;;2.75;97.5332;928.5012;;;;
2024/01/07 03:03:17;;;;;;;1.4;1.3;;;;;;;2.71;97.72754;928.5059;;;;
2024/01/07 03:05:42;;;;;;;1.2;1.2;;;;;;;2.75;97.45508;928.4401;;;;
2024/01/07 03:08:08;;;;;;;1.4;1.3;;;;;;;2.72;97.30078;928.4456;;;;
2024/01/07 03:10:33;;;;;;;1.2;1.1;;;;;;;2.69;97.65332;928.5015;;;;
2024/01/07 03:12:58;;;;;;;1;1;;;;;;;2.68;97.55078;928.4895;;;;
2024/01/07 03:15:23;;;;;;;1.3;1.2;;;;;;;2.72;97.61523;928.4574;;;;
2024/01/07 03:17:48;;;;;;;1.9;1.3;;;;;;;2.75;97.24219;928.5217;;;;
2024/01/07 03:20:13;;;;;;;1;1;;;;;;;2.76;97.19043;928.5284;;;;
2024/01/07 03:22:38;;;;;;;1.2;1.1;;;;;;;2.77;97.08887;928.5679;;;;
2024/01/07 03:25:04;;;;;;;0.9;0.9;;;;;;;2.73;97.2832;928.5363;;;;
2024/01/07 03:27:29;;;;;;;1.1;1;;;;;;;2.72;97.49219;928.4983;;;;
2024/01/07 03:29:54;;;;;;;1;1;;;;;;;2.78;97.37207;928.4737;;;;
2024/01/07 03:32:19;;;;;;;1;0.9;;;;;;;2.78;97.23926;928.5107;;;;
2024/01/07 03:34:44;;;;;;;0.8;0.8;;;;;;;2.77;97.21289;928.4995;;;;
2024/01/07 03:37:09;;;;;;;0.9;0.9;;;;;;;2.8;97.10645;928.5251;;;;
2024/01/07 03:39:35;;;;;;;0.8;0.8;;;;;;;2.76;97.17871;928.5173;;;;
2024/01/07 03:42:00;;;;;;;0.9;0.9;;;;;;;2.79;97.16113;928.5415;;;;
2024/01/07 03:44:25;;;;;;;0.7;0.7;;;;;;;2.8;96.99414;928.5283;;;;
2024/01/07 03:46:50;;;;;;;0.7;0.7;;;;;;;2.84;96.79199;928.5164;;;;
2024/01/07 03:49:15;;;;;;;0.6;0.6;;;;;;;2.79;96.88086;928.496;;;;
2024/01/07 03:51:40;;;;;;;0.8;0.8;;;;;;;2.75;97.17676;928.4881;;;;
2024/01/07 03:54:05;;;;;;;0.9;0.9;;;;;;;2.73;97.28516;928.483;;;;
2024/01/07 03:56:30;;;;;;;1;0.9;;;;;;;2.78;97.16992;928.4886;;;;
2024/01/07 03:58:55;;;;;;;0.9;0.9;;;;;;;2.77;97.21289;928.4719;;;;
2024/01/07 04:02:30;;;;;;;0.8;0.8;;;;;;;2.77;97.17871;928.582;;;;
2024/01/07 04:04:52;;;;;;;1;0.8;;;;;;;2.79;96.94727;928.5447;;;;
2024/01/07 04:07:18;;;;;;;0.8;0.8;;;;;;;2.77;97.21289;928.6174;;;;
2024/01/07 04:09:43;;;;;;;0.8;0.8;;;;;;;2.72;97.41309;928.4983;;;;
2024/01/07 04:12:08;;;;;;;0.7;0.7;;;;;;;2.73;97.42871;928.6039;;;;
2024/01/07 04:14:33;;;;;;;0.6;0.6;;;;;;;2.75;97.45508;928.5862;;;;
2024/01/07 04:16:58;;;;;;;0.9;0.9;;;;;;;2.7;97.53418;928.5883;;;;
2024/01/07 04:19:23;;;;;;;0.9;0.9;;;;;;;2.73;97.48438;928.644;;;;
2024/01/07 04:21:48;;;;;;;0.9;0.9;;;;;;;2.74;97.46387;928.634;;;;
2024/01/07 04:24:13;;;;;;;1.1;1.1;;;;;;;2.77;97.51563;928.6425;;;;
2024/01/07 04:26:38;;;;;;;1.4;1.3;;;;;;;2.77;97.40332;928.6637;;;;
2024/01/07 04:29:04;;;;;;;1.3;1.2;;;;;;;2.76;97.46875;928.6855;;;;
2024/01/07 04:31:29;;;;;;;1.3;1.2;;;;;;;2.7;97.78125;928.7054;;;;
2024/01/07 04:33:54;;;;;;;1.4;1.3;;;;;;;2.67;98.01953;928.7338;;;;
2024/01/07 04:36:19;;;;;;;1.2;1.1;;;;;;;2.71;97.76953;928.7472;;;;
2024/01/07 04:38:44;;;;;;;1.3;1.2;;;;;;;2.66;98.05078;928.7414;;;;
2024/01/07 04:41:09;;;;;;;1.4;1.3;;;;;;;2.68;98.0332;928.7433;;;;
2024/01/07 04:43:34;;;;;;;1.5;1.4;;;;;;;2.7;97.91602;928.6976;;;;
2024/01/07 04:45:59;;;;;;;1.7;1.5;;;;;;;2.69;98.0127;928.7419;;;;
2024/01/07 04:48:24;;;;;;;1.5;1.4;;;;;;;2.71;97.80566;928.6976;;;;
2024/01/07 04:50:50;;;;;;;1.9;1.7;;;;;;;2.72;97.80762;928.6375;;;;
2024/01/07 04:53:15;;;;;;;2.8;2;;;;;;;2.74;97.7334;928.6992;;;;
2024/01/07 04:55:40;;;;;;;1.9;1.8;;;;;;;2.73;97.77832;928.7281;;;;
2024/01/07 04:58:05;;;;;;;2.3;2.1;;;;;;;2.73;97.80078;928.7029;;;;
2024/01/07 05:00:30;;;;;;;3.8;3;;;;;;;2.75;97.70215;928.8;;;;
2024/01/07 05:02:55;;;;;;;2.5;2.3;;;;;;;2.72;97.81934;928.8135;;;;
2024/01/07 05:05:20;;;;;;;7.7;7;;;;;;;2.72;97.81934;928.7452;;;;
2024/01/07 05:07:45;;;;;;;10;8.5;;;;;;;2.74;97.68848;928.7856;;;;
2024/01/07 05:10:10;;;;;;;4.4;4;;;;;;;2.75;97.76953;928.8416;;;;
2024/01/07 05:12:37;;;;;;;3.5;3.2;;;;;;;2.72;97.86133;928.7718;;;;
2024/01/07 05:15:09;;;;;;;2.2;2;;;;;;;2.75;97.78027;928.8094;;;;
2024/01/07 05:17:26;;;;;;;1.9;1.8;;;;;;;2.73;97.84375;928.8592;;;;
2024/01/07 05:19:51;;;;;;;2.4;1.9;;;;;;;2.78;97.6543;928.8401;;;;
2024/01/07 05:22:16;;;;;;;2.1;1.9;;;;;;;2.79;97.53027;928.7773;;;;
2024/01/07 05:24:41;;;;;;;2;1.9;;;;;;;2.73;97.85449;928.812;;;;
2024/01/07 05:27:06;;;;;;;2.3;2.1;;;;;;;2.73;97.97754;928.812;;;;
2024/01/07 05:29:33;;;;;;;2.3;2.1;;;;;;;2.69;98.0459;928.8301;;;;
2024/01/07 05:31:57;;;;;;;2.3;2.1;;;;;;;2.68;98.10254;928.7293;;;;
2024/01/07 05:34:21;;;;;;;2.5;2.3;;;;;;;2.69;98.12402;928.8066;;;;
2024/01/07 05:36:47;;;;;;;2;1.9;;;;;;;2.72;98.06348;928.8959;;;;
2024/01/07 05:39:12;;;;;;;2.6;2.2;;;;;;;2.73;97.92188;928.8915;;;;
2024/01/07 05:41:37;;;;;;;2.1;1.9;;;;;;;2.72;97.9082;928.8686;;;;
2024/01/07 05:44:02;;;;;;;2.3;2.1;;;;;;;2.75;97.87012;928.8456;;;;
2024/01/07 05:46:27;;;;;;;2.6;1.6;;;;;;;2.8;97.55566;928.8348;;;;
2024/01/07 05:48:52;;;;;;;1.6;1.5;;;;;;;2.77;97.56055;928.8116;;;;
2024/01/07 05:51:18;;;;;;;1.6;1.5;;;;;;;2.72;97.94043;928.9133;;;;
2024/01/07 05:53:43;;;;;;;2.2;2;;;;;;;2.77;97.86328;928.9277;;;;
2024/01/07 05:56:08;;;;;;;8;5.9;;;;;;;2.81;97.54785;928.981;;;;
2024/01/07 05:58:33;;;;;;;6.7;4.7;;;;;;;2.77;97.38086;929.0103;;;;
2024/01/07 06:01:00;;;;;;;2.3;2.1;;;;;;;2.68;98.13574;928.9431;;;;
2024/01/07 06:03:23;;;;;;;1.6;1.5;;;;;;;2.69;98.20313;928.9275;;;;
2024/01/07 06:05:48;;;;;;;2.6;1.9;;;;;;;2.72;97.97363;928.9627;;;;
2024/01/07 06:08:14;;;;;;;1.6;1.5;;;;;;;2.73;97.93555;928.8743;;;;
2024/01/07 06:10:39;;;;;;;1;1;;;;;;;2.76;97.81641;929.0108;;;;
2024/01/07 06:13:04;;;;;;;1.2;1.1;;;;;;;2.75;97.8252;928.9989;;;;
2024/01/07 06:15:31;;;;;;;1.2;1.1;;;;;;;2.71;97.6377;929.012;;;;
2024/01/07 06:17:54;;;;;;;0.9;0.9;;;;;;;2.73;97.68848;929.0378;;;;
2024/01/07 06:20:19;;;;;;;1.4;1.1;;;;;;;2.67;98.0752;929.0025;;;;
2024/01/07 06:22:44;;;;;;;1.1;1;;;;;;;2.73;97.95508;929.0527;;;;
2024/01/07 06:25:10;;;;;;;1.1;1;;;;;;;2.71;98.00488;929.0709;;;;
2024/01/07 06:27:34;;;;;;;1.4;1.3;;;;;;;2.69;98.06836;929.0367;;;;
2024/01/07 06:29:59;;;;;;;1.6;1.5;;;;;;;2.65;98.3623;929.0759;;;;
2024/01/07 06:32:25;;;;;;;1.3;1.2;;;;;;;2.64;98.49316;929.1267;;;;
2024/01/07 06:34:50;;;;;;;1.3;1.2;;;;;;;2.63;98.40332;929.1093;;;;
2024/01/07 06:37:15;;;;;;;1.9;1.2;;;;;;;2.63;98.50391;929.07;;;;
2024/01/07 06:39:40;;;;;;;1.7;1.6;;;;;;;2.6;98.66406;929.1216;;;;
2024/01/07 06:42:05;;;;;;;3.2;2.3;;;;;;;2.63;98.62598;929.1414;;;;
2024/01/07 06:44:30;;;;;;;2.8;2.5;;;;;;;2.65;98.43945;929.1685;;;;
2024/01/07 06:46:55;;;;;;;3;2;;;;;;;2.67;98.45703;929.1055;;;;
2024/01/07 06:49:20;;;;;;;1.7;1.6;;;;;;;2.64;98.5957;929.1794;;;;
2024/01/07 06:51:46;;;;;;;1.8;1.7;;;;;;;2.62;98.73535;929.1906;;;;
2024/01/07 06:54:11;;;;;;;2.5;2.3;;;;;;;2.64;98.57324;929.2297;;;;
2024/01/07 06:56:36;;;;;;;2.1;2;;;;;;;2.66;98.5332;929.2551;;;;
2024/01/07 06:59:01;;;;;;;3.8;3.5;;;;;;;2.66;98.49902;929.2664;;;;
2024/01/07 07:01:26;;;;;;;5.6;5;;;;;;;2.68;98.48145;929.2729;;;;
2024/01/07 07:03:51;;;;;;;4.5;3.5;;;;;;;2.64;98.58496;929.2109;;;;
2024/01/07 07:06:17;;;;;;;3.7;3.4;;;;;;;2.66;98.49902;929.275;;;;
2024/01/07 07:08:44;;;;;;;9.3;7.7;;;;;;;2.69;98.4043;929.2245;;;;
2024/01/07 07:11:08;;;;;;;6.9;6.2;;;;;;;2.74;98.21582;929.3328;;;;
2024/01/07 07:13:32;;;;;;;4.6;4.2;;;;;;;2.73;97.94434;929.29;;;;
2024/01/07 07:15:57;;;;;;;3.7;3.4;;;;;;;2.68;98.31348;929.3391;;;;
2024/01/07 07:18:22;;;;;;;4.6;4.1;;;;;;;2.66;98.58887;929.3472;;;;
2024/01/07 07:20:48;;;;;;;5.6;4.8;;;;;;;2.73;98.33691;929.4141;;;;
2024/01/07 07:23:13;;;;;;;6.8;5.7;;;;;;;2.76;98.08496;929.4352;;;;
2024/01/07 07:25:38;;;;;;;9.6;6.7;;;;;;;2.8;97.70117;929.4573;;;;
2024/01/07 07:28:03;;;;;;;8.3;6.1;;;;;;;2.74;97.87891;929.4593;;;;
2024/01/07 07:30:29;;;;;;;6.2;4.7;;;;;;;2.82;97.45801;929.4944;;;;
2024/01/07 07:32:53;;;;;;;6.3;4;;;;;;;2.76;97.69238;929.5107;;;;
2024/01/07 07:35:18;;;;;;;8.5;5.2;;;;;;;2.75;97.74707;929.4925;;;;
2024/01/07 07:37:43;;;;;;;4.9;3.2;;;;;;;2.75;97.62305;929.56;;;;
2024/01/07 07:40:08;;;;;;;3.9;2.6;;;;;;;2.74;97.85645;929.5708;;;;
2024/01/07 07:42:33;;;;;;;5.6;3.9;;;;;;;2.76;97.59375;929.5721;;;;
2024/01/07 07:44:59;;;;;;;7.9;4.4;;;;;;;2.73;97.82129;929.6781;;;;
2024/01/07 07:47:23;;;;;;;2.9;2.6;;;;;;;2.77;97.84082;929.603;;;;
2024/01/07 07:49:50;;;;;;;4.1;3.7;;;;;;;2.74;97.80078;929.6863;;;;
2024/01/07 07:52:14;;;;;;;2.4;2.2;;;;;;;2.7;97.8125;929.6555;;;;
2024/01/07 07:54:39;;;;;;;2.8;2.5;;;;;;;2.7;98.02539;929.7145;;;;
2024/01/07 07:57:04;;;;;;;5.2;3.9;;;;;;;2.75;97.88086;929.7266;;;;
2024/01/07 07:59:29;;;;;;;2.9;2;;;;;;;2.72;97.72754;929.6936;;;;
2024/01/07 08:01:54;;;;;;;1.6;1.5;;;;;;;2.71;97.81641;929.7037;;;;
2024/01/07 08:04:19;;;;;;;1.4;1.3;;;;;;;2.57;97.97656;929.7888;;;;
2024/01/07 08:06:45;;;;;;;1.7;1.5;;;;;;;2.64;98.06738;929.7522;;;;
2024/01/07 08:09:10;;;;;;;2.1;1.8;;;;;;;2.68;97.83301;929.7933;;;;
2024/01/07 08:11:35;;;;;;;2.4;1.9;;;;;;;2.69;97.62012;929.8361;;;;
2024/01/07 08:14:01;;;;;;;1.9;1.7;;;;;;;2.72;97.57227;929.8337;;;;
2024/01/07 08:16:25;;;;;;;1.3;1.2;;;;;;;2.73;97.34082;929.8395;;;;
2024/01/07 08:18:50;;;;;;;1.4;1.3;;;;;;;2.76;97.07617;929.8361;;;;
2024/01/07 08:21:15;;;;;;;1.8;1.4;;;;;;;2.68;97.77539;929.8561;;;;
2024/01/07 08:23:41;;;;;;;2.7;2.2;;;;;;;2.7;97.80176;929.877;;;;
2024/01/07 08:26:05;;;;;;;1.6;1.5;;;;;;;2.78;97.30469;929.9387;;;;
2024/01/07 08:28:30;;;;;;;1.4;1.3;;;;;;;2.8;96.92969;929.9381;;;;
2024/01/07 08:30:56;;;;;;;1.5;1.4;;;;;;;2.81;96.96484;929.8394;;;;
2024/01/07 08:33:20;;;;;;;2.6;2;;;;;;;2.72;97.04492;929.9194;;;;
2024/01/07 08:35:46;;;;;;;3.1;2.3;;;;;;;2.8;96.79492;929.8674;;;;
2024/01/07 08:38:11;;;;;;;1.8;1.6;;;;;;;2.75;97.06445;929.9515;;;;
2024/01/07 08:40:36;;;;;;;2.4;2.2;;;;;;;2.92;96.35059;929.9677;;;;
2024/01/07 08:43:01;;;;;;;2.3;1.9;;;;;;;2.82;96.68652;930.007;;;;
2024/01/07 08:45:26;;;;;;;2;1.9;;;;;;;2.86;96.58301;930.0684;;;;
2024/01/07 08:47:51;;;;;;;2.2;2;;;;;;;2.8;96.1875;930.0839;;;;
2024/01/07 08:50:16;;;;;;;2.2;2;;;;;;;2.7;96.59277;930.0644;;;;
2024/01/07 08:52:41;;;;;;;2;1.8;;;;;;;2.67;96.90723;930.0963;;;;
2024/01/07 08:55:09;;;;;;;2;1.8;;;;;;;2.86;96.33789;930.1369;;;;
2024/01/07 08:57:31;;;;;;;2.6;2.4;;;;;;;2.94;95.80469;930.1003;;;;
2024/01/07 08:59:58;;;;;;;2.3;2.1;;;;;;;2.83;96.53223;930.1707;;;;
2024/01/07 09:02:25;;;;;;;2.9;2;;;;;;;2.9;95.94238;930.2079;;;;
2024/01/07 09:04:49;;;;;;;2.9;2.5;;;;;;;2.86;96.04688;930.2186;;;;
2024/01/07 09:07:16;;;;;;;2.1;1.9;;;;;;;2.94;95.87207;930.2495;;;;
2024/01/07 09:09:39;;;;;;;2.2;1.9;;;;;;;2.97;95.39551;930.2787;;;;
2024/01/07 09:12:04;;;;;;;2.3;1.9;;;;;;;3.01;95.23828;930.3248;;;;
2024/01/07 09:14:29;;;;;;;1.9;1.7;;;;;;;2.82;95.84375;930.3253;;;;
2024/01/07 09:16:55;;;;;;;1.9;1.7;;;;;;;2.76;96.22559;930.3251;;;;
2024/01/07 09:19:20;;;;;;;2.3;1.9;;;;;;;2.77;96.31543;930.2709;;;;
2024/01/07 09:21:45;;;;;;;2.3;2;;;;;;;2.82;96.19336;930.3442;;;;
2024/01/07 09:24:10;;;;;;;2.4;2;;;;;;;2.79;95.78125;930.3794;;;;
2024/01/07 09:26:35;;;;;;;2.5;2.3;;;;;;;2.76;96.10059;930.4139;;;;
2024/01/07 09:29:01;;;;;;;3.7;2.8;;;;;;;2.8;96.12207;930.4177;;;;
2024/01/07 09:31:26;;;;;;;2.6;2;;;;;;;2.67;96.76367;930.5051;;;;
2024/01/07 09:33:51;;;;;;;2.3;2.1;;;;;;;2.78;96.35156;930.4772;;;;
2024/01/07 09:36:16;;;;;;;3.2;2;;;;;;;2.8;96.38867;930.5122;;;;
2024/01/07 09:38:41;;;;;;;2.8;1.6;;;;;;;2.9;95.7832;930.5255;;;;
2024/01/07 09:41:06;;;;;;;2.3;1.7;;;;;;;2.85;96.07422;930.5186;;;;
2024/01/07 09:43:31;;;;;;;2.6;1.7;;;;;;;3;95.39258;930.509;;;;
2024/01/07 09:45:56;;;;;;;2.3;1.6;;;;;;;2.92;95.63281;930.452;;;;
2024/01/07 09:48:21;;;;;;;3.3;1.8;;;;;;;2.9;95.58398;930.5161;;;;
2024/01/07 09:50:46;;;;;;;3;1.6;;;;;;;2.94;95.81641;930.5162;;;;
2024/01/07 09:53:12;;;;;;;2.2;1.7;;;;;;;2.9;96.23438;930.5247;;;;
2024/01/07 09:55:37;;;;;;;2;1.5;;;;;;;2.89;95.98535;930.5535;;;;
2024/01/07 09:58:02;;;;;;;1.6;1.5;;;;;;;2.97;95.97949;930.5524;;;;
2024/01/07 10:00:27;;;;;;;1.9;1.4;;;;;;;2.89;95.98535;930.5353;;;;
2024/01/07 10:02:52;;;;;;;1.5;1.4;;;;;;;2.96;95.75488;930.5499;;;;
2024/01/07 10:05:17;;;;;;;1.9;1.5;;;;;;;2.89;96.0752;930.5472;;;;
2024/01/07 10:07:42;;;;;;;1.8;1.7;;;;;;;2.92;96.10352;930.5472;;;;
2024/01/07 10:10:07;;;;;;;2.2;2;;;;;;;2.87;96.25977;930.5388;;;;
2024/01/07 10:12:34;;;;;;;2.2;2;;;;;;;2.97;95.82227;930.5806;;;;
2024/01/07 10:14:57;;;;;;;2.1;1.7;;;;;;;2.89;95.58203;930.5039;;;;
2024/01/07 10:17:27;;;;;;;2.5;1.7;;;;;;;2.97;95.54395;930.4116;;;;
2024/01/07 10:19:48;;;;;;;2.2;2;;;;;;;3.01;95;930.5032;;;;
2024/01/07 10:22:13;;;;;;;2.4;1.9;;;;;;;2.89;95.62695;930.5613;;;;
2024/01/07 10:24:39;;;;;;;2;1.7;;;;;;;2.88;95.56641;930.491;;;;
2024/01/07 10:27:03;;;;;;;2.2;1.5;;;;;;;2.98;95.88281;930.4497;;;;
2024/01/07 10:29:29;;;;;;;1.7;1.6;;;;;;;3.06;94.91113;930.5461;;;;
2024/01/07 10:31:53;;;;;;;1.6;1.5;;;;;;;3.01;94.99121;930.5261;;;;
2024/01/07 10:34:19;;;;;;;1.6;1.5;;;;;;;3.15;94.13477;930.5326;;;;
2024/01/07 10:36:44;;;;;;;1.6;1.5;;;;;;;2.98;94.51367;930.5856;;;;
2024/01/07 10:39:09;;;;;;;1.7;1.6;;;;;;;2.99;94.76074;930.5511;;;;
2024/01/07 10:41:34;;;;;;;1.9;1.7;;;;;;;2.99;94.93066;930.5591;;;;
2024/01/07 10:43:59;;;;;;;2.1;1.7;;;;;;;3.02;94.98145;930.5428;;;;
2024/01/07 10:46:26;;;;;;;1.8;1.7;;;;;;;3.17;94.52246;930.5583;;;;
2024/01/07 10:48:49;;;;;;;2;1.8;;;;;;;3.14;94.25781;930.5277;;;;
2024/01/07 10:51:14;;;;;;;2.4;1.7;;;;;;;3.04;94.53906;930.5953;;;;
2024/01/07 10:53:39;;;;;;;2.1;1.9;;;;;;;3.08;94.06445;930.5624;;;;
2024/01/07 10:56:05;;;;;;;1.9;1.7;;;;;;;3.01;94.90332;930.5466;;;;
2024/01/07 10:58:30;;;;;;;1.5;1.4;;;;;;;3.11;94.81152;930.6206;;;;
2024/01/07 11:00:55;;;;;;;1.9;1.8;;;;;;;3.09;94.31348;930.4408;;;;
2024/01/07 11:03:20;;;;;;;2.7;2;;;;;;;2.97;94.99219;930.5098;;;;
2024/01/07 11:05:45;;;;;;;2.3;2.1;;;;;;;3.04;94.97461;930.4584;;;;
2024/01/07 11:08:10;;;;;;;2.7;2.1;;;;;;;3.04;94.92969;930.4465;;;;
2024/01/07 11:10:35;;;;;;;2.3;1.8;;;;;;;3.07;94.89063;930.4348;;;;
2024/01/07 11:13:01;;;;;;;2.2;2;;;;;;;3.08;94.53418;930.5229;;;;
2024/01/07 11:15:25;;;;;;;2.1;1.7;;;;;;;3.16;94.15039;930.4016;;;;
2024/01/07 11:17:51;;;;;;;2.2;1.9;;;;;;;3.02;94.79102;930.4753;;;;
2024/01/07 11:20:16;;;;;;;1.7;1.6;;;;;;;3.02;94.49902;930.484;;;;
2024/01/07 11:22:41;;;;;;;2.2;2;;;;;;;3.13;94.32129;930.4977;;;;
2024/01/07 11:25:06;;;;;;;2.8;2;;;;;;;3.09;94.59375;930.4753;;;;
2024/01/07 11:27:32;;;;;;;2.4;2;;;;;;;3.09;94.14551;930.4456;;;;
2024/01/07 11:29:57;;;;;;;2.5;2.3;;;;;;;3.03;94.53516;930.481;;;;
2024/01/07 11:32:21;;;;;;;3.2;2.7;;;;;;;3.08;94.44434;930.4436;;;;
2024/01/07 11:34:49;;;;;;;3.8;2.5;;;;;;;3.24;93.96582;930.4462;;;;
2024/01/07 11:37:13;;;;;;;3.2;2.2;;;;;;;3.16;93.90137;930.4944;;;;
2024/01/07 11:39:37;;;;;;;2.4;2.2;;;;;;;3.21;93.62109;930.4503;;;;
2024/01/07 11:42:02;;;;;;;2.8;2.3;;;;;;;3.16;93.50781;930.4817;;;;
2024/01/07 11:44:27;;;;;;;2.5;1.9;;;;;;;3.15;93.78711;930.4554;;;;
2024/01/07 11:46:52;;;;;;;2.2;1.9;;;;;;;3.15;93.62012;930.5132;;;;
2024/01/07 11:49:17;;;;;;;3.1;2.4;;;;;;;3.09;93.67188;930.4289;;;;
2024/01/07 11:51:42;;;;;;;3;2.3;;;;;;;3.15;93.22559;930.48;;;;
2024/01/07 11:54:08;;;;;;;3;2.2;;;;;;;2.9;93.34082;930.4517;;;;
2024/01/07 11:56:33;;;;;;;2.5;2;;;;;;;2.92;93.74609;930.4794;;;;
2024/01/07 11:58:58;;;;;;;2.7;2.1;;;;;;;3.04;94.1123;930.4861;;;;
2024/01/07 12:01:23;;;;;;;2.4;2.2;;;;;;;3.07;93.47754;930.5007;;;;
2024/01/07 12:03:49;;;;;;;2.6;2.3;;;;;;;2.96;93.63281;930.5103;;;;
2024/01/07 12:06:14;;;;;;;2;1.8;;;;;;;3.02;93.32129;930.5312;;;;
2024/01/07 12:08:39;;;;;;;2.6;2.2;;;;;;;3.06;93.27539;930.5329;;;;
2024/01/07 12:11:04;;;;;;;2.3;2.1;;;;;;;3.06;93.36328;930.5147;;;;
2024/01/07 12:13:29;;;;;;;2.8;2.4;;;;;;;3.02;93.07422;930.5225;;;;
2024/01/07 12:15:54;;;;;;;2.4;2.2;;;;;;;3.03;93.26758;930.5045;;;;
2024/01/07 12:18:19;;;;;;;2.5;2;;;;;;;3.03;92.72852;930.5564;;;;
2024/01/07 12:20:44;;;;;;;2.4;2;;;;;;;2.9;93.28418;930.5436;;;;
2024/01/07 12:23:10;;;;;;;2.5;2;;;;;;;2.82;93.5;930.6105;;;;
2024/01/07 12:25:35;;;;;;;3;2.4;;;;;;;2.7;93.95605;930.5812;;;;
2024/01/07 12:28:00;;;;;;;3.1;2.4;;;;;;;2.84;93.97656;930.6544;;;;
2024/01/07 12:30:26;;;;;;;2.5;2.2;;;;;;;2.9;93.60742;930.5851;;;;
2024/01/07 12:32:50;;;;;;;3;2.7;;;;;;;2.85;92.94531;930.6585;;;;
2024/01/07 12:35:15;;;;;;;3.5;2.7;;;;;;;2.89;92.53125;930.515;;;;
2024/01/07 12:37:40;;;;;;;3.9;2.9;;;;;;;2.89;92.35156;930.6203;;;;
2024/01/07 12:40:08;;;;;;;3.3;2.8;;;;;;;2.66;93.19727;930.6802;;;;
2024/01/07 12:42:30;;;;;;;2.8;2.5;;;;;;;2.83;93.05566;930.5692;;;;
2024/01/07 12:44:55;;;;;;;3.4;3.1;;;;;;;2.65;93.24023;930.7238;;;;
2024/01/07 12:47:20;;;;;;;3.2;2.7;;;;;;;2.67;92.08984;930.652;;;;
2024/01/07 12:49:45;;;;;;;2.9;2.6;;;;;;;2.71;92.85938;930.6758;;;;
2024/01/07 12:52:10;;;;;;;4.3;3.4;;;;;;;2.44;93.19238;930.7217;;;;
2024/01/07 12:54:36;;;;;;;3.9;3.1;;;;;;;2.27;94.49121;930.7107;;;;
2024/01/07 12:57:01;;;;;;;4.3;3.3;;;;;;;2.25;94.19434;930.7195;;;;
2024/01/07 12:59:26;;;;;;;3.7;3;;;;;;;2.36;94.13965;930.791;;;;
2024/01/07 13:01:51;;;;;;;3.9;3.3;;;;;;;2.32;94.82422;930.7558;;;;
2024/01/07 13:04:16;;;;;;;3.8;3.3;;;;;;;2.43;94.99609;930.7953;;;;
2024/01/07 13:06:41;;;;;;;5;3.3;;;;;;;2.61;94.20703;930.7157;;;;
2024/01/07 13:09:08;;;;;;;5;3.7;;;;;;;2.64;93.72949;930.8414;;;;
2024/01/07 13:11:31;;;;;;;4.2;3.1;;;;;;;2.7;92.91406;930.817;;;;
2024/01/07 13:13:58;;;;;;;4;3.3;;;;;;;2.61;93.03027;930.8981;;;;
2024/01/07 13:16:22;;;;;;;4.2;3.6;;;;;;;2.57;93.39258;930.9282;;;;
2024/01/07 13:18:47;;;;;;;3.9;3.5;;;;;;;2.63;93.07715;930.9409;;;;
2024/01/07 13:21:12;;;;;;;4.6;3.2;;;;;;;2.67;93.24414;930.8987;;;;
2024/01/07 13:26:20;;;;;;;8.1;7.1;;;;;;;2.64;92.77832;930.8878;;;;
2024/01/07 13:28:45;;;;;;;4.2;3.8;;;;;;;2.71;92.23145;931.0137;;;;
2024/01/07 13:31:12;;;;;;;4.6;3.1;;;;;;;2.68;92.52832;931.0082;;;;
2024/01/07 13:33:36;;;;;;;4.6;3;;;;;;;2.66;91.89648;931.0328;;;;
2024/01/07 13:36:00;;;;;;;3.2;2.5;;;;;;;2.61;92.0332;931.0717;;;;
2024/01/07 13:38:25;;;;;;;3.2;2.5;;;;;;;2.69;92.39551;931.1122;;;;
2024/01/07 13:40:52;;;;;;;3.8;3.2;;;;;;;2.66;92.64746;931.1517;;;;
2024/01/07 13:43:16;;;;;;;3.9;3.1;;;;;;;2.67;92.61621;931.1417;;;;
2024/01/07 13:45:41;;;;;;;3.8;3;;;;;;;2.69;92.56445;931.1037;;;;
2024/01/07 13:48:07;;;;;;;4.5;3.3;;;;;;;2.71;92.81641;931.1624;;;;
2024/01/07 13:50:31;;;;;;;3.5;3;;;;;;;2.73;92.43945;931.2557;;;;
2024/01/07 13:52:56;;;;;;;3.5;3.2;;;;;;;2.65;93.23828;931.2244;;;;
2024/01/07 13:55:22;;;;;;;5.2;3.5;;;;;;;2.73;93.57227;931.2377;;;;
2024/01/07 13:57:46;;;;;;;4.3;3.1;;;;;;;2.55;93.19629;931.3078;;;;
2024/01/07 14:00:18;;;;;;;4.2;3.2;;;;;;;2.64;93.46191;931.2612;;;;
2024/01/07 14:02:37;;;;;;;4.6;3.6;;;;;;;2.71;92.71582;931.278;;;;
2024/01/07 14:05:02;;;;;;;3.6;3.2;;;;;;;2.65;93.18359;931.2725;;;;
2024/01/07 14:07:28;;;;;;;5.4;3.5;;;;;;;2.67;93.2666;931.298;;;;
2024/01/07 14:09:52;;;;;;;4.4;3.5;;;;;;;2.59;93.78613;931.3176;;;;
2024/01/07 14:12:17;;;;;;;4.5;3.8;;;;;;;2.66;93.62305;931.3873;;;;
2024/01/07 14:14:42;;;;;;;4.9;3.9;;;;;;;2.7;93.13965;931.3619;;;;
2024/01/07 14:17:07;;;;;;;5.2;3.8;;;;;;;2.69;92.84473;931.3057;;;;
2024/01/07 14:19:33;;;;;;;4.8;3.4;;;;;;;2.75;92.6582;931.4199;;;;
2024/01/07 14:21:58;;;;;;;5.4;3.8;;;;;;;2.7;92.37598;931.4482;;;;
2024/01/07 14:24:23;;;;;;;5;3.8;;;;;;;2.82;91.83105;931.5156;;;;
2024/01/07 14:26:49;;;;;;;5.3;3.6;;;;;;;2.73;91.64355;931.5206;;;;
2024/01/07 14:29:14;;;;;;;4.7;3.9;;;;;;;2.62;92.57324;931.505;;;;
2024/01/07 14:31:39;;;;;;;4.3;3.6;;;;;;;2.71;92.51172;931.5309;;;;